General Aviation Weather

Text Reports

Enter one or more of the following location identifiers separated by a space:

Zip Code, Four-Character ICAO or Three-Character IATA airport codes.

METAR - Aviation Routine Weather Report
KCPW - Wolf Creek Pass, Colorado
Updated at 1:34 AM GMT on April 19, 2014 (7:34 PM MDT):
METAR KCPW 190134Z AUTO 23015G23KT 10SM SCT028 BKN048 OVC050 02/M05 A3030 RMK AO2
TAF - Terminal Area Forecast
KCPW - Wolf Creek Pass, Colorado
Updated at 1:34 AM GMT on April 19, 2014 (7:34 PM MDT):
No TAF is currently available for this location.
Decoded:
No decoded TAF is available.
PIREP - Pilot Weather Report
KCPW - Wolf Creek Pass, Colorado
Updated at 1:34 AM GMT on April 19, 2014 (7:34 PM MDT):
No PIREP is currently available for this location.
AIRMET - Airmens Meteorological Information
KCPW - Wolf Creek Pass, Colorado
Updated at 1:34 AM GMT on April 19, 2014 (7:34 PM MDT):
No AIRMET is currently available for this location.
SIGMET - Significant Meteorological Information
KCPW - Wolf Creek Pass, Colorado
Updated at 1:34 AM GMT on April 19, 2014 (7:34 PM MDT):
No SIGMET is currently available for this location.
NOTAM - Notice to Airmen
KCPW - Wolf Creek Pass, Colorado
Updated at 1:34 AM GMT on April 19, 2014 (7:34 PM MDT):
No NOTAM is currently available for this location.
Forecast Area
KCPW - Wolf Creek Pass, Colorado
Updated at 1:34 AM GMT on April 19, 2014 (7:34 PM MDT):
No NOTAM is currently available for this location.
Aviation Weather Maps